Terminal Aerodrome Forecast
Issued by NWS Shreveport, LA

Home | Current Version | Previous Version | Text Only | Print | Product List | Glossary On
Versions: 1 2 3 4 5 6 7 8 9 10 11 12 13 14 15 16 17 18 19
422
FTUS44 KSHV 061733
TAFLFK
TAF
KLFK 061733Z 0618/0718 01004KT P6SM OVC012
      TEMPO 0618/0622 OVC007
     FM070400 VRB03KT 4SM BR OVC004
      TEMPO 0709/0713 1SM BR OVC002=

USA.gov is the U.S. government's official web portal to all federal, state and local government web resources and services.